sensor_id;sensor_type;location;lat;lon;timestamp;pressure;altitude;pressure_sealevel;temperature;humidity
20017;BME280;10169;42.664;23.610;2023-05-11T17:24:06;95496.00;;;12.21;100.00
20017;BME280;10169;42.664;23.610;2023-05-11T17:26:07;95504.66;;;12.11;100.00
20017;BME280;10169;42.664;23.610;2023-05-11T17:28:07;95504.66;;;12.11;100.00
20017;BME280;10169;42.664;23.610;2023-05-11T17:30:07;95500.78;;;12.19;100.00
20017;BME280;10169;42.664;23.610;2023-05-11T17:32:08;95508.25;;;12.22;100.00
20017;BME280;10169;42.664;23.610;2023-05-11T17:34:09;95503.28;;;12.09;100.00
20017;BME280;10169;42.664;23.610;2023-05-11T17:36:09;95501.72;;;12.13;100.00
20017;BME280;10169;42.664;23.610;2023-05-11T17:38:10;95508.81;;;12.24;100.00
20017;BME280;10169;42.664;23.610;2023-05-11T17:40:11;95503.78;;;12.06;100.00
20017;BME280;10169;42.664;23.610;2023-05-11T17:42:11;95506.75;;;12.09;100.00
20017;BME280;10169;42.664;23.610;2023-05-11T17:44:12;95505.13;;;12.08;100.00
20017;BME280;10169;42.664;23.610;2023-05-11T17:46:12;95506.31;;;12.17;100.00
20017;BME280;10169;42.664;23.610;2023-05-11T17:48:12;95493.91;;;12.06;100.00
20017;BME280;10169;42.664;23.610;2023-05-11T17:50:13;95499.78;;;12.08;100.00
20017;BME280;10169;42.664;23.610;2023-05-11T17:52:13;95497.47;;;11.95;100.00
20017;BME280;10169;42.664;23.610;2023-05-11T17:54:14;95496.34;;;11.91;100.00
20017;BME280;10169;42.664;23.610;2023-05-11T17:56:15;95495.06;;;11.94;100.00
20017;BME280;10169;42.664;23.610;2023-05-11T17:58:15;95490.78;;;11.76;100.00
20017;BME280;10169;42.664;23.610;2023-05-11T18:00:15;95493.03;;;11.84;100.00
20017;BME280;10169;42.664;23.610;2023-05-11T18:02:16;95494.81;;;11.79;100.00
20017;BME280;10169;42.664;23.610;2023-05-11T18:04:17;95493.66;;;11.75;100.00
20017;BME280;10169;42.664;23.610;2023-05-11T18:06:18;95496.31;;;11.75;100.00
20017;BME280;10169;42.664;23.610;2023-05-11T18:08:18;95490.81;;;11.64;100.00
20017;BME280;10169;42.664;23.610;2023-05-11T18:10:18;95496.16;;;11.64;100.00
20017;BME280;10169;42.664;23.610;2023-05-11T18:12:19;95500.31;;;11.72;100.00
20017;BME280;10169;42.664;23.610;2023-05-11T18:14:19;95501.66;;;11.75;100.00
20017;BME280;10169;42.664;23.610;2023-05-11T18:16:19;95505.94;;;11.76;100.00
20017;BME280;10169;42.664;23.610;2023-05-11T18:18:20;95514.09;;;11.69;100.00
20017;BME280;10169;42.664;23.610;2023-05-11T18:20:21;95510.16;;;11.72;100.00
20017;BME280;10169;42.664;23.610;2023-05-11T18:22:22;95509.00;;;11.68;100.00
20017;BME280;10169;42.664;23.610;2023-05-11T18:24:22;95519.16;;;11.71;100.00
20017;BME280;10169;42.664;23.610;2023-05-11T18:26:23;95518.44;;;11.75;100.00
20017;BME280;10169;42.664;23.610;2023-05-11T18:28:24;95516.75;;;11.69;100.00
20017;BME280;10169;42.664;23.610;2023-05-11T18:30:24;95520.44;;;11.68;100.00
20017;BME280;10169;42.664;23.610;2023-05-11T18:32:25;95515.25;;;11.61;100.00
20017;BME280;10169;42.664;23.610;2023-05-11T18:34:25;95521.53;;;11.55;100.00
20017;BME280;10169;42.664;23.610;2023-05-11T18:36:26;95517.56;;;11.70;100.00
20017;BME280;10169;42.664;23.610;2023-05-11T18:38:27;95521.84;;;11.59;100.00
20017;BME280;10169;42.664;23.610;2023-05-11T18:40:27;95526.56;;;11.52;100.00
20017;BME280;10169;42.664;23.610;2023-05-11T18:42:27;95526.00;;;11.66;100.00
20017;BME280;10169;42.664;23.610;2023-05-11T18:44:28;95529.38;;;11.62;100.00
20017;BME280;10169;42.664;23.610;2023-05-11T18:46:28;95535.81;;;11.49;100.00
20017;BME280;10169;42.664;23.610;2023-05-11T18:48:28;95533.94;;;11.50;100.00
20017;BME280;10169;42.664;23.610;2023-05-11T18:50:29;95535.63;;;11.39;100.00
20017;BME280;10169;42.664;23.610;2023-05-11T18:52:29;95534.03;;;11.38;100.00
20017;BME280;10169;42.664;23.610;2023-05-11T18:54:29;95539.50;;;11.32;100.00
20017;BME280;10169;42.664;23.610;2023-05-11T18:56:29;95536.91;;;11.37;100.00
20017;BME280;10169;42.664;23.610;2023-05-11T18:58:30;95535.41;;;11.41;100.00
20017;BME280;10169;42.664;23.610;2023-05-11T19:00:31;95535.88;;;11.38;100.00
20017;BME280;10169;42.664;23.610;2023-05-11T19:02:35;95539.94;;;11.29;100.00
20017;BME280;10169;42.664;23.610;2023-05-11T19:04:36;95538.31;;;11.28;100.00
20017;BME280;10169;42.664;23.610;2023-05-11T19:06:36;95546.66;;;11.31;100.00
20017;BME280;10169;42.664;23.610;2023-05-11T19:08:36;95541.66;;;11.35;100.00
20017;BME280;10169;42.664;23.610;2023-05-11T19:10:37;95548.25;;;11.32;100.00
20017;BME280;10169;42.664;23.610;2023-05-11T19:12:38;95547.06;;;11.40;100.00
20017;BME280;10169;42.664;23.610;2023-05-11T19:14:38;95535.31;;;11.36;100.00
20017;BME280;10169;42.664;23.610;2023-05-11T19:16:38;95536.75;;;11.43;100.00
20017;BME280;10169;42.664;23.610;2023-05-11T19:18:39;95542.00;;;11.38;100.00
20017;BME280;10169;42.664;23.610;2023-05-11T19:20:39;95538.47;;;11.49;100.00
20017;BME280;10169;42.664;23.610;2023-05-11T19:22:40;95547.03;;;11.51;100.00
20017;BME280;10169;42.664;23.610;2023-05-11T19:24:40;95547.41;;;11.43;100.00
20017;BME280;10169;42.664;23.610;2023-05-11T19:26:40;95547.53;;;11.37;100.00
20017;BME280;10169;42.664;23.610;2023-05-11T19:28:41;95550.06;;;11.43;100.00
20017;BME280;10169;42.664;23.610;2023-05-11T19:30:41;95546.38;;;11.44;100.00
20017;BME280;10169;42.664;23.610;2023-05-11T19:32:42;95548.19;;;11.27;100.00
20017;BME280;10169;42.664;23.610;2023-05-11T19:34:42;95549.94;;;11.22;100.00
20017;BME280;10169;42.664;23.610;2023-05-11T19:36:42;95551.19;;;11.19;100.00
20017;BME280;10169;42.664;23.610;2023-05-11T19:38:42;95553.88;;;11.19;100.00
20017;BME280;10169;42.664;23.610;2023-05-11T19:40:43;95550.16;;;11.20;100.00
20017;BME280;10169;42.664;23.610;2023-05-11T19:42:43;95553.81;;;11.31;100.00
20017;BME280;10169;42.664;23.610;2023-05-11T19:44:43;95546.75;;;11.36;100.00
20017;BME280;10169;42.664;23.610;2023-05-11T19:46:44;95551.69;;;11.44;100.00
20017;BME280;10169;42.664;23.610;2023-05-11T19:48:45;95556.34;;;11.37;100.00
20017;BME280;10169;42.664;23.610;2023-05-11T19:50:46;95549.03;;;11.44;100.00
20017;BME280;10169;42.664;23.610;2023-05-11T19:52:46;95556.25;;;11.32;100.00
20017;BME280;10169;42.664;23.610;2023-05-11T19:54:47;95548.94;;;11.39;100.00
20017;BME280;10169;42.664;23.610;2023-05-11T19:56:47;95553.34;;;11.34;100.00
20017;BME280;10169;42.664;23.610;2023-05-11T19:58:47;95547.22;;;11.33;100.00
20017;BME280;10169;42.664;23.610;2023-05-11T20:00:48;95552.88;;;11.37;100.00
20017;BME280;10169;42.664;23.610;2023-05-11T20:02:48;95557.16;;;11.38;100.00
20017;BME280;10169;42.664;23.610;2023-05-11T20:04:48;95552.19;;;11.30;100.00
20017;BME280;10169;42.664;23.610;2023-05-11T20:06:48;95563.19;;;11.33;100.00
20017;BME280;10169;42.664;23.610;2023-05-11T20:08:49;95560.06;;;11.36;100.00
20017;BME280;10169;42.664;23.610;2023-05-11T20:10:50;95564.78;;;11.34;100.00
20017;BME280;10169;42.664;23.610;2023-05-11T20:12:50;95567.94;;;11.31;100.00
20017;BME280;10169;42.664;23.610;2023-05-11T20:14:51;95565.75;;;11.28;100.00
20017;BME280;10169;42.664;23.610;2023-05-11T20:16:51;95558.16;;;11.20;100.00
20017;BME280;10169;42.664;23.610;2023-05-11T20:18:52;95563.78;;;11.24;100.00
20017;BME280;10169;42.664;23.610;2023-05-11T20:20:52;95567.84;;;11.26;100.00
20017;BME280;10169;42.664;23.610;2023-05-11T20:22:52;95569.47;;;11.27;100.00
20017;BME280;10169;42.664;23.610;2023-05-11T20:24:53;95568.78;;;11.20;100.00
20017;BME280;10169;42.664;23.610;2023-05-11T20:26:53;95570.88;;;11.18;100.00
20017;BME280;10169;42.664;23.610;2023-05-11T20:28:53;95573.16;;;11.26;100.00
20017;BME280;10169;42.664;23.610;2023-05-11T20:30:54;95571.41;;;11.32;100.00
20017;BME280;10169;42.664;23.610;2023-05-11T20:32:55;95568.41;;;11.28;100.00
20017;BME280;10169;42.664;23.610;2023-05-11T20:34:55;95579.44;;;11.20;100.00
20017;BME280;10169;42.664;23.610;2023-05-11T20:36:55;95577.81;;;11.19;100.00
20017;BME280;10169;42.664;23.610;2023-05-11T20:38:56;95577.34;;;11.22;100.00
20017;BME280;10169;42.664;23.610;2023-05-11T20:40:56;95580.13;;;11.16;100.00
20017;BME280;10169;42.664;23.610;2023-05-11T20:42:57;95580.03;;;11.11;100.00
20017;BME280;10169;42.664;23.610;2023-05-11T20:44:57;95581.16;;;11.15;100.00
20017;BME280;10169;42.664;23.610;2023-05-11T20:47:04;95574.47;;;11.12;100.00
20017;BME280;10169;42.664;23.610;2023-05-11T20:49:04;95580.28;;;11.09;100.00
20017;BME280;10169;42.664;23.610;2023-05-11T20:51:05;95582.13;;;11.09;100.00
20017;BME280;10169;42.664;23.610;2023-05-11T20:53:05;95579.00;;;11.12;100.00
20017;BME280;10169;42.664;23.610;2023-05-11T20:55:05;95580.84;;;11.11;100.00
20017;BME280;10169;42.664;23.610;2023-05-11T20:57:06;95580.75;;;11.06;100.00
20017;BME280;10169;42.664;23.610;2023-05-11T20:59:07;95587.56;;;11.02;100.00
20017;BME280;10169;42.664;23.610;2023-05-11T21:01:07;95588.72;;;11.06;100.00
20017;BME280;10169;42.664;23.610;2023-05-11T21:03:07;95588.16;;;10.92;100.00
20017;BME280;10169;42.664;23.610;2023-05-11T21:05:08;95590.13;;;10.85;100.00
20017;BME280;10169;42.664;23.610;2023-05-11T21:07:08;95590.38;;;10.84;100.00
20017;BME280;10169;42.664;23.610;2023-05-11T21:09:08;95591.66;;;10.81;100.00
20017;BME280;10169;42.664;23.610;2023-05-11T21:11:09;95590.94;;;10.86;100.00
20017;BME280;10169;42.664;23.610;2023-05-11T21:13:10;95597.22;;;10.80;100.00
20017;BME280;10169;42.664;23.610;2023-05-11T21:15:12;95596.97;;;10.81;100.00
20017;BME280;10169;42.664;23.610;2023-05-11T21:17:12;95595.34;;;10.80;100.00
20017;BME280;10169;42.664;23.610;2023-05-11T21:19:12;95593.28;;;10.82;100.00
20017;BME280;10169;42.664;23.610;2023-05-11T21:21:14;95599.63;;;10.81;100.00
20017;BME280;10169;42.664;23.610;2023-05-11T21:23:15;95595.47;;;10.74;100.00
20017;BME280;10169;42.664;23.610;2023-05-11T21:25:15;95594.56;;;10.80;100.00
20017;BME280;10169;42.664;23.610;2023-05-11T21:27:15;95602.41;;;10.63;100.00
20017;BME280;10169;42.664;23.610;2023-05-11T21:29:16;95599.19;;;10.61;100.00
20017;BME280;10169;42.664;23.610;2023-05-11T21:31:16;95599.66;;;10.58;100.00
20017;BME280;10169;42.664;23.610;2023-05-11T21:33:17;95599.06;;;10.56;100.00
20017;BME280;10169;42.664;23.610;2023-05-11T21:35:17;95601.63;;;10.51;100.00
20017;BME280;10169;42.664;23.610;2023-05-11T21:37:17;95602.78;;;10.55;100.00
20017;BME280;10169;42.664;23.610;2023-05-11T21:39:19;95608.44;;;10.59;100.00
20017;BME280;10169;42.664;23.610;2023-05-11T21:41:19;95599.56;;;10.53;100.00
20017;BME280;10169;42.664;23.610;2023-05-11T21:43:20;95613.63;;;10.54;100.00
20017;BME280;10169;42.664;23.610;2023-05-11T21:45:20;95603.81;;;10.43;100.00
20017;BME280;10169;42.664;23.610;2023-05-11T21:47:20;95604.38;;;10.56;100.00
20017;BME280;10169;42.664;23.610;2023-05-11T21:49:20;95609.69;;;10.45;100.00
20017;BME280;10169;42.664;23.610;2023-05-11T21:51:21;95616.50;;;10.41;100.00
20017;BME280;10169;42.664;23.610;2023-05-11T21:53:22;95611.78;;;10.31;100.00
20017;BME280;10169;42.664;23.610;2023-05-11T21:55:22;95616.75;;;10.28;100.00
20017;BME280;10169;42.664;23.610;2023-05-11T21:57:23;95621.81;;;10.17;100.00
20017;BME280;10169;42.664;23.610;2023-05-11T21:59:23;95619.03;;;10.12;100.00
20017;BME280;10169;42.664;23.610;2023-05-11T22:01:26;95609.22;;;10.13;100.00
20017;BME280;10169;42.664;23.610;2023-05-11T22:03:26;95617.47;;;10.05;100.00
20017;BME280;10169;42.664;23.610;2023-05-11T22:05:30;95609.03;;;9.96;100.00
20017;BME280;10169;42.664;23.610;2023-05-11T22:07:30;95614.22;;;9.91;100.00
20017;BME280;10169;42.664;23.610;2023-05-11T22:09:30;95616.88;;;9.91;100.00
20017;BME280;10169;42.664;23.610;2023-05-11T22:11:32;95615.63;;;9.94;100.00
20017;BME280;10169;42.664;23.610;2023-05-11T22:13:32;95621.84;;;9.88;100.00
20017;BME280;10169;42.664;23.610;2023-05-11T22:15:33;95619.19;;;9.88;100.00
20017;BME280;10169;42.664;23.610;2023-05-11T22:17:35;95617.06;;;9.78;100.00
20017;BME280;10169;42.664;23.610;2023-05-11T22:19:35;95606.13;;;9.86;100.00
20017;BME280;10169;42.664;23.610;2023-05-11T22:21:36;95612.25;;;9.87;100.00
20017;BME280;10169;42.664;23.610;2023-05-11T22:23:36;95609.47;;;9.82;100.00
20017;BME280;10169;42.664;23.610;2023-05-11T22:25:36;95610.41;;;9.87;100.00
20017;BME280;10169;42.664;23.610;2023-05-11T22:27:36;95608.53;;;9.76;100.00
20017;BME280;10169;42.664;23.610;2023-05-11T22:29:37;95605.75;;;9.71;100.00
20017;BME280;10169;42.664;23.610;2023-05-11T22:31:37;95617.63;;;9.69;100.00
20017;BME280;10169;42.664;23.610;2023-05-11T22:33:37;95611.72;;;9.67;100.00
20017;BME280;10169;42.664;23.610;2023-05-11T22:35:38;95608.88;;;9.68;100.00
20017;BME280;10169;42.664;23.610;2023-05-11T22:37:38;95606.31;;;9.73;100.00
20017;BME280;10169;42.664;23.610;2023-05-11T22:39:39;95602.88;;;9.73;100.00
20017;BME280;10169;42.664;23.610;2023-05-11T22:41:39;95606.56;;;9.72;100.00
20017;BME280;10169;42.664;23.610;2023-05-11T22:43:39;95607.78;;;9.58;100.00
20017;BME280;10169;42.664;23.610;2023-05-11T22:45:40;95610.78;;;9.61;100.00
20017;BME280;10169;42.664;23.610;2023-05-11T22:47:40;95604.53;;;9.56;100.00
20017;BME280;10169;42.664;23.610;2023-05-11T22:49:41;95606.75;;;9.59;100.00
20017;BME280;10169;42.664;23.610;2023-05-11T22:51:43;95600.97;;;9.50;100.00
20017;BME280;10169;42.664;23.610;2023-05-11T22:53:44;95605.88;;;9.46;100.00
20017;BME280;10169;42.664;23.610;2023-05-11T22:55:45;95602.78;;;9.49;100.00
20017;BME280;10169;42.664;23.610;2023-05-11T22:57:45;95606.84;;;9.52;100.00
20017;BME280;10169;42.664;23.610;2023-05-11T22:59:45;95611.56;;;9.50;100.00
20017;BME280;10169;42.664;23.610;2023-05-11T23:01:46;95610.16;;;9.47;100.00
20017;BME280;10169;42.664;23.610;2023-05-11T23:03:46;95602.06;;;9.42;100.00
20017;BME280;10169;42.664;23.610;2023-05-11T23:05:47;95609.03;;;9.55;100.00
20017;BME280;10169;42.664;23.610;2023-05-11T23:07:47;95602.41;;;9.46;100.00
20017;BME280;10169;42.664;23.610;2023-05-11T23:09:47;95598.75;;;9.47;100.00
20017;BME280;10169;42.664;23.610;2023-05-11T23:11:51;95603.59;;;9.50;100.00
20017;BME280;10169;42.664;23.610;2023-05-11T23:13:52;95595.09;;;9.30;100.00
20017;BME280;10169;42.664;23.610;2023-05-11T23:15:52;95604.81;;;9.36;100.00
20017;BME280;10169;42.664;23.610;2023-05-11T23:17:52;95603.84;;;9.30;100.00
20017;BME280;10169;42.664;23.610;2023-05-11T23:19:53;95600.94;;;9.20;100.00
20017;BME280;10169;42.664;23.610;2023-05-11T23:21:53;95591.16;;;9.21;100.00
20017;BME280;10169;42.664;23.610;2023-05-11T23:23:53;95594.81;;;9.20;100.00
20017;BME280;10169;42.664;23.610;2023-05-11T23:25:53;95598.53;;;9.19;100.00
20017;BME280;10169;42.664;23.610;2023-05-11T23:27:54;95592.91;;;9.09;100.00
20017;BME280;10169;42.664;23.610;2023-05-11T23:29:54;95598.06;;;9.22;100.00
20017;BME280;10169;42.664;23.610;2023-05-11T23:31:54;95580.75;;;9.01;100.00
20017;BME280;10169;42.664;23.610;2023-05-11T23:33:55;95596.97;;;9.11;100.00
20017;BME280;10169;42.664;23.610;2023-05-11T23:35:55;95593.97;;;9.08;100.00
20017;BME280;10169;42.664;23.610;2023-05-11T23:37:55;95594.56;;;9.10;100.00
20017;BME280;10169;42.664;23.610;2023-05-11T23:39:56;95592.25;;;9.13;100.00
20017;BME280;10169;42.664;23.610;2023-05-11T23:41:56;95596.47;;;9.03;100.00
20017;BME280;10169;42.664;23.610;2023-05-11T23:43:56;95594.09;;;8.95;100.00
20017;BME280;10169;42.664;23.610;2023-05-11T23:45:57;95592.78;;;8.86;100.00
20017;BME280;10169;42.664;23.610;2023-05-11T23:47:57;95592.03;;;8.97;100.00
20017;BME280;10169;42.664;23.610;2023-05-11T23:49:57;95590.66;;;8.94;100.00
20017;BME280;10169;42.664;23.610;2023-05-11T23:51:58;95588.88;;;8.88;100.00
20017;BME280;10169;42.664;23.610;2023-05-11T23:53:58;95587.34;;;8.81;100.00
20017;BME280;10169;42.664;23.610;2023-05-11T23:55:58;95587.88;;;8.89;100.00
20017;BME280;10169;42.664;23.610;2023-05-11T23:57:59;95590.75;;;8.69;100.00
20017;BME280;10169;42.664;23.610;2023-05-11T23:59:59;95592.84;;;8.79;100.00
